createdAt,value
2022-11-09T00:00:45.982Z,93.05
2022-11-09T00:03:13.126Z,93.52
2022-11-09T00:05:39.885Z,93.31
2022-11-09T00:08:07.830Z,93.78
2022-11-09T00:10:34.720Z,93.49
2022-11-09T00:13:02.569Z,92.61
2022-11-09T00:15:29.219Z,92.00
2022-11-09T00:17:55.628Z,90.04
2022-11-09T00:20:22.044Z,91.50
2022-11-09T00:22:49.604Z,91.83
2022-11-09T00:25:21.928Z,91.88
2022-11-09T00:27:48.330Z,90.48
2022-11-09T00:30:15.391Z,90.29
2022-11-09T00:32:41.842Z,91.24
2022-11-09T00:35:08.714Z,90.71
2022-11-09T00:37:35.475Z,90.87
2022-11-09T00:40:01.967Z,91.14
2022-11-09T00:42:28.378Z,90.75
2022-11-09T00:44:54.919Z,92.17
2022-11-09T00:47:21.354Z,91.90
2022-11-09T00:49:51.891Z,92.01
2022-11-09T00:52:18.261Z,91.95
2022-11-09T00:54:44.652Z,91.69
2022-11-09T00:57:12.649Z,91.99
2022-11-09T00:59:39.071Z,92.62
2022-11-09T01:02:05.481Z,93.42
2022-11-09T01:04:31.901Z,92.83
2022-11-09T01:06:58.321Z,93.43
2022-11-09T01:09:24.812Z,93.74
2022-11-09T01:11:51.253Z,92.57
2022-11-09T01:14:17.688Z,91.95
2022-11-09T01:16:44.160Z,92.15
2022-11-09T01:19:11.836Z,92.09
2022-11-09T01:21:38.302Z,92.09
2022-11-09T01:24:05.674Z,92.52
2022-11-09T01:26:37.519Z,92.42
2022-11-09T01:29:03.918Z,92.50
2022-11-09T01:31:30.457Z,93.02
2022-11-09T01:33:56.923Z,93.07
2022-11-09T01:36:24.583Z,92.92
2022-11-09T01:38:51.651Z,93.16
2022-11-09T01:41:22.357Z,92.59
2022-11-09T01:44:10.688Z,92.76
2022-11-09T01:46:54.697Z,92.72
2022-11-09T01:49:37.292Z,91.46
2022-11-09T01:52:13.389Z,91.71
2022-11-09T01:54:44.561Z,92.52
2022-11-09T01:57:16.076Z,92.53
2022-11-09T01:59:50.159Z,92.66
2022-11-09T02:02:16.973Z,92.28
2022-11-09T02:04:52.154Z,91.55
2022-11-09T02:07:19.726Z,91.43
2022-11-09T02:10:04.090Z,92.39
2022-11-09T02:12:34.401Z,92.29
2022-11-09T02:15:03.833Z,91.81
2022-11-09T02:17:30.462Z,92.60
2022-11-09T02:20:00.612Z,92.49
2022-11-09T02:22:27.023Z,92.33
2022-11-09T02:24:56.271Z,92.59
2022-11-09T02:27:23.904Z,92.87
2022-11-09T02:29:50.394Z,91.41
2022-11-09T02:32:24.059Z,91.87
2022-11-09T02:34:50.456Z,92.38
2022-11-09T02:37:42.081Z,92.74
2022-11-09T02:40:14.741Z,92.87
2022-11-09T02:42:41.241Z,92.89
2022-11-09T02:45:08.279Z,93.20
2022-11-09T02:47:34.683Z,91.99
2022-11-09T02:50:01.102Z,92.96
2022-11-09T02:52:27.622Z,93.13
2022-11-09T02:54:54.540Z,93.60
2022-11-09T02:57:21.101Z,93.66
2022-11-09T02:59:47.513Z,93.71
2022-11-09T03:02:14.015Z,93.86
2022-11-09T03:04:40.454Z,93.69
2022-11-09T03:07:08.120Z,93.40
2022-11-09T03:09:34.643Z,93.40
2022-11-09T03:12:21.035Z,93.40
2022-11-09T03:14:47.447Z,93.99
2022-11-09T03:17:14.146Z,93.55
2022-11-09T03:19:40.554Z,92.81
2022-11-09T03:22:06.993Z,93.74
2022-11-09T03:24:33.437Z,93.92
2022-11-09T03:26:59.839Z,94.21
2022-11-09T03:29:27.329Z,94.57
2022-11-09T03:31:53.737Z,94.26
2022-11-09T03:34:20.136Z,93.99
2022-11-09T03:36:46.563Z,93.72
2022-11-09T03:39:12.956Z,93.61
2022-11-09T03:41:39.358Z,93.60
2022-11-09T03:44:05.956Z,93.72
2022-11-09T03:46:32.444Z,93.44
2022-11-09T03:48:58.969Z,93.96
2022-11-09T03:51:25.388Z,93.26
2022-11-09T03:53:51.838Z,92.17
2022-11-09T03:56:18.339Z,93.07
2022-11-09T03:58:44.784Z,93.76
2022-11-09T04:01:11.358Z,93.32
2022-11-09T04:03:44.795Z,92.78
2022-11-09T04:06:11.249Z,92.76
2022-11-09T04:08:37.687Z,93.63
2022-11-09T04:11:04.082Z,93.13
2022-11-09T04:13:30.515Z,92.92
2022-11-09T04:15:56.887Z,93.81
2022-11-09T04:18:23.297Z,93.56
2022-11-09T04:20:49.705Z,93.57
2022-11-09T04:23:16.368Z,93.26
2022-11-09T04:25:43.255Z,93.27
2022-11-09T04:28:12.136Z,92.54
2022-11-09T04:30:38.922Z,91.39
2022-11-09T04:33:05.743Z,91.54
2022-11-09T04:35:33.458Z,91.96
2022-11-09T04:38:06.693Z,92.15
2022-11-09T04:40:34.879Z,92.60
2022-11-09T04:43:03.053Z,92.72
2022-11-09T04:45:29.767Z,92.13
2022-11-09T04:48:01.359Z,92.81
2022-11-09T04:50:28.840Z,93.33
2022-11-09T04:52:56.007Z,92.99
2022-11-09T04:55:22.409Z,93.55
2022-11-09T04:57:48.832Z,92.88
2022-11-09T05:00:15.630Z,92.38
2022-11-09T05:02:44.095Z,92.82
2022-11-09T05:05:10.484Z,93.55
2022-11-09T05:07:37.545Z,93.94
2022-11-09T05:10:04.129Z,93.17
2022-11-09T05:12:30.621Z,94.39
2022-11-09T05:14:57.063Z,94.50
2022-11-09T05:17:23.486Z,93.75
2022-11-09T05:19:57.128Z,94.42
2022-11-09T05:22:42.049Z,93.52
2022-11-09T05:25:08.840Z,93.78
2022-11-09T05:27:35.980Z,94.17
2022-11-09T05:30:02.454Z,92.52
2022-11-09T05:32:28.848Z,93.18
2022-11-09T05:34:55.279Z,93.07
2022-11-09T05:37:22.272Z,92.39
2022-11-09T05:39:48.877Z,93.40
2022-11-09T05:42:15.274Z,92.29
2022-11-09T05:44:41.691Z,93.18
2022-11-09T05:47:08.113Z,92.61
2022-11-09T05:49:34.593Z,92.58
2022-11-09T05:52:01.011Z,91.75
2022-11-09T05:54:27.430Z,92.68
2022-11-09T05:56:53.903Z,92.36
2022-11-09T05:59:20.314Z,91.67
2022-11-09T06:01:46.732Z,91.70
2022-11-09T06:04:16.419Z,90.65
2022-11-09T06:06:43.697Z,90.54
2022-11-09T06:09:10.192Z,89.73
2022-11-09T06:11:36.642Z,90.48
2022-11-09T06:14:03.273Z,90.72
2022-11-09T06:16:29.826Z,89.22
2022-11-09T06:18:56.319Z,90.38
2022-11-09T06:21:23.382Z,89.08
2022-11-09T06:23:49.830Z,88.90
2022-11-09T06:26:16.293Z,89.07
2022-11-09T06:28:42.837Z,89.53
2022-11-09T06:31:13.059Z,89.26
2022-11-09T06:33:39.518Z,87.96
2022-11-09T06:36:06.297Z,88.74
2022-11-09T06:38:32.913Z,88.78
2022-11-09T06:41:00.288Z,89.04
2022-11-09T06:43:27.458Z,88.08
2022-11-09T06:45:54.375Z,89.16
2022-11-09T06:48:21.278Z,90.24
2022-11-09T06:50:47.759Z,89.38
2022-11-09T06:53:16.500Z,88.41
2022-11-09T06:55:47.425Z,87.98
2022-11-09T06:58:17.037Z,88.29
2022-11-09T07:00:44.110Z,89.59
2022-11-09T07:03:15.003Z,90.27
2022-11-09T07:05:41.748Z,89.01
2022-11-09T07:08:08.183Z,90.29
2022-11-09T07:10:34.624Z,89.94
2022-11-09T07:13:03.174Z,89.94
2022-11-09T07:15:29.890Z,89.87
2022-11-09T07:17:58.051Z,89.89
2022-11-09T07:20:24.887Z,90.37
2022-11-09T07:22:51.888Z,90.17
2022-11-09T07:25:19.558Z,89.72
2022-11-09T07:27:46.366Z,90.39
2022-11-09T07:30:13.439Z,90.24
2022-11-09T07:33:07.987Z,88.90
2022-11-09T07:35:27.501Z,90.92
2022-11-09T07:37:54.014Z,89.72
2022-11-09T07:40:20.547Z,88.74
2022-11-09T07:42:46.987Z,89.36
2022-11-09T07:45:13.472Z,88.42
2022-11-09T07:47:39.902Z,87.61
2022-11-09T07:50:06.671Z,87.28
2022-11-09T07:52:33.124Z,87.38
2022-11-09T07:54:59.535Z,86.65
2022-11-09T07:57:25.951Z,85.62
2022-11-09T07:59:53.555Z,86.23
2022-11-09T08:02:20.026Z,85.44
2022-11-09T08:04:46.490Z,85.51
2022-11-09T08:07:12.933Z,85.29
2022-11-09T08:09:39.461Z,84.04
2022-11-09T08:12:06.100Z,84.35
2022-11-09T08:14:33.011Z,83.76
2022-11-09T08:16:59.474Z,83.85
2022-11-09T08:19:25.898Z,83.89
2022-11-09T08:21:57.206Z,84.17
2022-11-09T08:24:24.005Z,83.06
2022-11-09T08:26:50.465Z,83.61
2022-11-09T08:29:16.964Z,83.20
2022-11-09T08:31:43.398Z,83.22
2022-11-09T08:34:14.303Z,83.88
2022-11-09T08:36:41.063Z,83.76
2022-11-09T08:39:07.598Z,83.61
2022-11-09T08:41:35.239Z,82.17
2022-11-09T08:44:01.822Z,83.03
2022-11-09T08:46:28.294Z,81.21
2022-11-09T08:48:54.720Z,81.27
2022-11-09T08:51:21.150Z,81.80
2022-11-09T08:53:48.651Z,81.59
2022-11-09T08:56:18.394Z,81.02
2022-11-09T08:58:45.607Z,79.87
2022-11-09T09:01:17.048Z,77.92
2022-11-09T09:03:43.929Z,78.29
2022-11-09T09:06:10.357Z,76.85
2022-11-09T09:08:36.771Z,75.30
2022-11-09T09:11:06.709Z,74.29
2022-11-09T09:13:33.526Z,69.14
2022-11-09T09:16:12.687Z,70.26
2022-11-09T09:18:39.102Z,71.36
2022-11-09T09:21:07.622Z,69.77
2022-11-09T09:23:34.170Z,68.64
2022-11-09T09:26:00.686Z,68.34
2022-11-09T09:28:27.254Z,67.58
2022-11-09T09:30:54.139Z,68.66
2022-11-09T09:33:21.910Z,69.90
2022-11-09T09:35:51.967Z,68.88
2022-11-09T09:38:29.963Z,68.89
2022-11-09T09:41:02.974Z,67.78
2022-11-09T09:43:47.678Z,66.70
2022-11-09T09:46:19.600Z,67.22
2022-11-09T09:48:53.395Z,68.36
2022-11-09T09:51:35.022Z,67.39
2022-11-09T09:54:16.887Z,66.79
2022-11-09T09:56:47.143Z,67.84
2022-11-09T09:59:18.650Z,66.85
2022-11-09T10:01:45.799Z,67.51
2022-11-09T10:04:28.741Z,67.03
2022-11-09T10:07:24.561Z,64.11
2022-11-09T10:10:20.307Z,63.35
2022-11-09T10:13:16.588Z,62.87
2022-11-09T10:15:59.399Z,63.14
2022-11-09T10:18:47.761Z,63.65
2022-11-09T10:21:34.581Z,65.63
2022-11-09T10:24:58.641Z,66.30
2022-11-09T10:27:36.299Z,66.87
2022-11-09T10:30:14.969Z,65.42
2022-11-09T10:32:45.577Z,66.84
2022-11-09T10:35:24.862Z,65.84
2022-11-09T10:37:52.452Z,62.41
2022-11-09T10:40:27.961Z,62.74
2022-11-09T10:42:59.367Z,64.56
2022-11-09T10:45:29.532Z,63.84
2022-11-09T10:47:56.054Z,64.47
2022-11-09T10:50:46.784Z,64.20
2022-11-09T10:53:25.460Z,63.84
2022-11-09T10:55:57.767Z,63.21
2022-11-09T10:58:37.592Z,60.18
2022-11-09T11:01:16.283Z,59.63
2022-11-09T11:03:50.174Z,59.16
2022-11-09T11:06:28.524Z,58.42
2022-11-09T11:08:58.025Z,58.46
2022-11-09T11:11:34.994Z,58.71
2022-11-09T11:14:11.701Z,59.90
2022-11-09T11:16:39.640Z,60.95
2022-11-09T11:19:08.690Z,60.92
2022-11-09T11:21:35.153Z,61.89
2022-11-09T11:24:18.052Z,61.68
2022-11-09T11:26:50.496Z,61.30
2022-11-09T11:30:00.563Z,61.24
2022-11-09T11:32:27.207Z,62.03
2022-11-09T11:35:00.364Z,61.17
2022-11-09T11:37:37.856Z,61.13
2022-11-09T11:40:15.938Z,61.40
2022-11-09T11:43:07.542Z,59.19
2022-11-09T11:45:42.104Z,58.50
2022-11-09T11:48:47.081Z,59.85
2022-11-09T11:51:23.259Z,60.28
2022-11-09T11:54:25.276Z,60.55
2022-11-09T11:57:33.193Z,61.26
2022-11-09T12:00:18.089Z,61.27
2022-11-09T12:02:48.781Z,61.72
2022-11-09T12:05:43.404Z,61.63
2022-11-09T12:08:16.041Z,61.79
2022-11-09T12:10:56.080Z,61.69
2022-11-09T12:13:31.574Z,61.53
2022-11-09T12:16:10.808Z,61.66
2022-11-09T12:18:43.055Z,60.61
2022-11-09T12:21:41.374Z,59.83
2022-11-09T12:24:26.465Z,59.93
2022-11-09T12:27:31.521Z,60.20
2022-11-09T12:30:12.760Z,59.96
2022-11-09T12:32:51.409Z,56.81
2022-11-09T12:35:27.071Z,56.28
2022-11-09T12:38:10.289Z,55.67
2022-11-09T12:40:48.726Z,56.50
2022-11-09T12:43:31.804Z,56.87
2022-11-09T12:46:00.526Z,56.00
2022-11-09T12:48:30.831Z,57.13
2022-11-09T12:51:02.944Z,55.80
2022-11-09T12:53:36.547Z,56.79
2022-11-09T12:56:10.516Z,55.92
2022-11-09T12:58:39.008Z,53.27
2022-11-09T13:01:10.699Z,55.02
2022-11-09T13:03:40.499Z,56.01
2022-11-09T13:06:16.613Z,54.69
2022-11-09T13:08:55.804Z,54.57
2022-11-09T13:11:37.791Z,55.17
2022-11-09T13:14:22.239Z,55.31
2022-11-09T13:16:55.868Z,54.34
2022-11-09T13:19:34.450Z,56.15
2022-11-09T13:22:02.246Z,55.45
2022-11-09T13:24:31.766Z,55.99
2022-11-09T13:27:03.422Z,55.59
2022-11-09T13:29:55.303Z,56.44
2022-11-09T13:32:26.645Z,55.06
2022-11-09T13:35:03.528Z,55.29
2022-11-09T13:37:42.150Z,56.18
2022-11-09T13:40:31.734Z,56.44
2022-11-09T13:43:25.530Z,56.55
2022-11-09T13:45:58.502Z,56.95
2022-11-09T13:48:34.689Z,57.91
2022-11-09T13:51:05.853Z,59.73
2022-11-09T13:53:38.667Z,61.80
2022-11-09T13:56:27.456Z,63.45
2022-11-09T13:59:00.590Z,63.28
2022-11-09T14:01:52.840Z,63.86
2022-11-09T14:04:36.356Z,64.59
2022-11-09T14:07:05.014Z,64.44
2022-11-09T14:10:07.019Z,65.44
2022-11-09T14:12:51.904Z,64.48
2022-11-09T14:15:30.763Z,63.26
2022-11-09T14:18:34.823Z,64.32
2022-11-09T14:21:15.173Z,66.49
2022-11-09T14:23:41.913Z,68.72
2022-11-09T14:26:10.306Z,69.78
2022-11-09T14:28:37.310Z,69.28
2022-11-09T14:31:03.741Z,68.27
2022-11-09T14:33:34.769Z,68.10
2022-11-09T14:36:04.243Z,68.09
2022-11-09T14:38:36.341Z,64.28
2022-11-09T14:41:03.781Z,63.37
2022-11-09T14:43:38.687Z,64.85
2022-11-09T14:46:14.333Z,66.22
2022-11-09T14:48:49.697Z,66.30
2022-11-09T14:51:17.692Z,67.39
2022-11-09T14:53:44.596Z,68.11
2022-11-09T14:56:15.175Z,69.88
2022-11-09T14:58:44.115Z,70.08
2022-11-09T15:01:20.087Z,68.75
2022-11-09T15:04:06.808Z,70.41
2022-11-09T15:06:34.264Z,72.22
2022-11-09T15:09:08.150Z,69.69
2022-11-09T15:11:37.199Z,68.63
2022-11-09T15:14:26.470Z,69.02
2022-11-09T15:17:05.108Z,67.58
2022-11-09T15:19:48.251Z,66.37
2022-11-09T15:22:42.539Z,68.34
2022-11-09T15:25:23.453Z,70.32
2022-11-09T15:28:09.550Z,72.45
2022-11-09T15:31:07.011Z,74.54
2022-11-09T15:33:45.563Z,73.32
2022-11-09T15:36:35.054Z,74.03
2022-11-09T15:39:19.640Z,75.46
2022-11-09T15:41:46.141Z,76.02
2022-11-09T15:44:14.313Z,78.56
2022-11-09T15:46:49.995Z,80.01
2022-11-09T15:49:28.030Z,81.66
2022-11-09T15:51:55.208Z,81.60
2022-11-09T15:54:23.279Z,82.97
2022-11-09T15:56:51.102Z,82.63
2022-11-09T15:59:23.479Z,82.18
2022-11-09T16:01:50.003Z,80.64
2022-11-09T16:04:16.476Z,80.36
2022-11-09T16:06:46.559Z,78.91
2022-11-09T16:09:13.279Z,81.03
2022-11-09T16:11:39.715Z,77.13
2022-11-09T16:14:06.175Z,77.93
2022-11-09T16:16:32.642Z,77.87
2022-11-09T16:18:59.575Z,79.68
2022-11-09T16:21:26.096Z,81.92
2022-11-09T16:23:58.110Z,82.53
2022-11-09T16:26:25.084Z,81.68
2022-11-09T16:28:51.482Z,82.83
2022-11-09T16:31:25.255Z,84.17
2022-11-09T16:34:01.573Z,84.80
2022-11-09T16:36:28.700Z,86.48
2022-11-09T16:38:56.606Z,86.54
2022-11-09T16:41:24.306Z,87.61
2022-11-09T16:43:55.095Z,90.07
2022-11-09T16:46:25.161Z,89.85
2022-11-09T16:48:53.085Z,90.24
2022-11-09T16:51:19.722Z,91.20
2022-11-09T16:53:46.158Z,93.27
2022-11-09T16:56:13.474Z,91.82
2022-11-09T16:58:41.962Z,94.04
2022-11-09T17:01:12.442Z,94.70
2022-11-09T17:03:39.855Z,94.87
2022-11-09T17:06:10.966Z,95.11
2022-11-09T17:08:39.235Z,95.84
2022-11-09T17:11:14.947Z,94.58
2022-11-09T17:13:41.525Z,96.11
2022-11-09T17:16:11.038Z,95.46
2022-11-09T17:18:40.560Z,97.08
2022-11-09T17:21:12.037Z,98.21
2022-11-09T17:23:39.166Z,98.04
2022-11-09T17:26:07.171Z,98.31
2022-11-09T17:28:35.221Z,98.37
2022-11-09T17:31:15.370Z,97.98
2022-11-09T17:33:42.250Z,98.79
2022-11-09T17:36:13.933Z,97.84
2022-11-09T17:38:40.683Z,99.84
2022-11-09T17:41:14.489Z,98.08
2022-11-09T17:43:42.759Z,98.98
2022-11-09T17:46:16.193Z,99.06
2022-11-09T17:48:46.759Z,98.86
2022-11-09T17:51:15.115Z,99.24
2022-11-09T17:53:41.998Z,98.62
2022-11-09T17:56:09.955Z,98.84
2022-11-09T17:58:41.443Z,100.00
2022-11-09T18:01:14.068Z,100.00
2022-11-09T18:03:47.881Z,100.00
2022-11-09T18:06:20.388Z,100.00
2022-11-09T18:08:59.231Z,100.00
2022-11-09T18:11:34.109Z,100.00
2022-11-09T18:14:01.028Z,100.00
2022-11-09T18:16:28.202Z,100.00
2022-11-09T18:19:02.100Z,100.00
2022-11-09T18:21:28.661Z,100.00
2022-11-09T18:23:55.504Z,100.00
2022-11-09T18:26:21.992Z,100.00
2022-11-09T18:28:48.506Z,100.00
2022-11-09T18:31:15.010Z,100.00
2022-11-09T18:33:42.791Z,100.00
2022-11-09T18:36:15.600Z,100.00
2022-11-09T18:38:43.720Z,100.00
2022-11-09T18:41:14.129Z,100.00
2022-11-09T18:43:41.820Z,100.00
2022-11-09T18:46:10.904Z,100.00
2022-11-09T18:48:37.674Z,100.00
2022-11-09T18:51:05.843Z,100.00
2022-11-09T18:53:38.294Z,100.00
2022-11-09T18:56:08.296Z,100.00
2022-11-09T18:58:35.097Z,100.00
2022-11-09T19:01:06.718Z,100.00
2022-11-09T19:03:34.081Z,100.00
2022-11-09T19:06:06.229Z,100.00
2022-11-09T19:08:51.330Z,100.00
2022-11-09T19:11:18.058Z,100.00
2022-11-09T19:13:44.512Z,100.00
2022-11-09T19:16:13.103Z,100.00
2022-11-09T19:18:40.045Z,100.00
2022-11-09T19:21:17.927Z,100.00
2022-11-09T19:23:44.342Z,100.00
2022-11-09T19:26:17.469Z,100.00
2022-11-09T19:28:43.944Z,100.00
2022-11-09T19:31:15.554Z,100.00
2022-11-09T19:33:42.123Z,100.00
2022-11-09T19:36:29.176Z,100.00
2022-11-09T19:38:56.299Z,100.00
2022-11-09T19:41:25.213Z,100.00
2022-11-09T19:43:54.406Z,100.00
2022-11-09T19:46:21.007Z,100.00
2022-11-09T19:48:47.714Z,100.00
2022-11-09T19:51:16.564Z,100.00
2022-11-09T19:53:49.566Z,100.00
2022-11-09T19:56:16.075Z,100.00
2022-11-09T19:58:42.736Z,100.00
2022-11-09T20:01:13.337Z,100.00
2022-11-09T20:03:39.840Z,100.00
2022-11-09T20:06:07.034Z,100.00
2022-11-09T20:08:36.761Z,100.00
2022-11-09T20:11:34.814Z,100.00
2022-11-09T20:14:01.435Z,100.00
2022-11-09T20:16:28.005Z,100.00
2022-11-09T20:18:55.770Z,100.00
2022-11-09T20:21:22.168Z,100.00
2022-11-09T20:23:53.537Z,100.00
2022-11-09T20:26:20.026Z,100.00
2022-11-09T20:28:46.482Z,100.00
2022-11-09T20:31:15.882Z,99.38
2022-11-09T20:33:42.819Z,100.00
2022-11-09T20:36:14.790Z,99.80
2022-11-09T20:38:41.697Z,100.00
2022-11-09T20:41:10.943Z,100.00
2022-11-09T20:43:37.965Z,100.00
2022-11-09T20:46:16.007Z,100.00
2022-11-09T20:48:58.911Z,100.00
2022-11-09T20:51:26.005Z,100.00
2022-11-09T20:53:52.507Z,100.00
2022-11-09T20:56:20.234Z,100.00
2022-11-09T20:58:47.159Z,100.00
2022-11-09T21:01:26.800Z,100.00
2022-11-09T21:04:01.837Z,100.00
2022-11-09T21:06:31.286Z,100.00
2022-11-09T21:09:00.306Z,100.00
2022-11-09T21:11:35.831Z,100.00
2022-11-09T21:14:03.318Z,99.56
2022-11-09T21:16:29.739Z,100.00
2022-11-09T21:18:57.230Z,100.00
2022-11-09T21:21:25.182Z,100.00
2022-11-09T21:24:10.406Z,100.00
2022-11-09T21:26:55.140Z,100.00
2022-11-09T21:29:42.437Z,100.00
2022-11-09T21:32:11.020Z,100.00
2022-11-09T21:34:37.739Z,100.00
2022-11-09T21:37:04.910Z,100.00
2022-11-09T21:39:32.105Z,100.00
2022-11-09T21:41:58.691Z,100.00
2022-11-09T21:44:27.249Z,100.00
2022-11-09T21:46:53.675Z,100.00
2022-11-09T21:49:20.207Z,100.00
2022-11-09T21:51:47.346Z,100.00
2022-11-09T21:54:13.827Z,100.00
2022-11-09T21:56:40.470Z,100.00
2022-11-09T21:59:07.077Z,100.00
2022-11-09T22:01:33.745Z,100.00
2022-11-09T22:04:00.464Z,100.00
2022-11-09T22:06:27.339Z,100.00
2022-11-09T22:08:53.960Z,100.00
2022-11-09T22:11:41.592Z,100.00
2022-11-09T22:14:37.594Z,100.00
2022-11-09T22:17:06.004Z,100.00
2022-11-09T22:19:52.203Z,100.00
2022-11-09T22:22:19.001Z,100.00
2022-11-09T22:24:46.285Z,100.00
2022-11-09T22:27:12.696Z,100.00
2022-11-09T22:29:39.287Z,100.00
2022-11-09T22:32:06.444Z,100.00
2022-11-09T22:34:33.254Z,100.00
2022-11-09T22:36:59.663Z,100.00
2022-11-09T22:39:26.142Z,100.00
2022-11-09T22:41:52.650Z,100.00
2022-11-09T22:44:19.238Z,100.00
2022-11-09T22:46:45.716Z,100.00
2022-11-09T22:49:12.399Z,100.00
2022-11-09T22:51:38.833Z,100.00
2022-11-09T22:54:05.530Z,100.00
2022-11-09T22:56:31.952Z,100.00
2022-11-09T22:58:58.366Z,100.00
2022-11-09T23:01:25.001Z,100.00
2022-11-09T23:03:53.748Z,100.00
2022-11-09T23:06:22.359Z,100.00
2022-11-09T23:08:49.512Z,100.00
2022-11-09T23:11:19.156Z,100.00
2022-11-09T23:13:51.915Z,100.00
2022-11-09T23:16:21.576Z,100.00
2022-11-09T23:18:54.202Z,100.00
2022-11-09T23:21:28.206Z,100.00
2022-11-09T23:23:57.571Z,100.00
2022-11-09T23:26:24.714Z,100.00
2022-11-09T23:28:51.350Z,100.00
2022-11-09T23:31:23.510Z,100.00
2022-11-09T23:33:51.894Z,100.00
2022-11-09T23:36:19.459Z,100.00
2022-11-09T23:38:46.699Z,100.00
2022-11-09T23:41:14.708Z,100.00
2022-11-09T23:43:46.191Z,100.00
2022-11-09T23:46:15.328Z,100.00
2022-11-09T23:48:41.872Z,100.00
2022-11-09T23:51:09.105Z,100.00
2022-11-09T23:53:36.466Z,100.00
2022-11-09T23:56:05.979Z,100.00
2022-11-09T23:58:32.781Z,100.00
